Time;durP1;ratioP1;P1;durP2;ratioP2;P2;SDS_P1;SDS_P2;PMS_P1;PMS_P2;Temp;Humidity;BMP_temperature;BMP_pressure;BME280_temperature;BME280_humidity;BME280_pressure;Samples;Min_cycle;Max_cycle;Signal;HPM_P1;HPM_P2
2021/12/31 05:00:18;;;;;;;4.97;2.90;;;9.10;99.70;;;;;;4992252;28;20210;-67
2021/12/31 05:02:45;;;;;;;4.90;2.70;;;9.10;99.70;;;;;;4992341;28;20616;-66
2021/12/31 05:05:12;;;;;;;9.83;3.10;;;9.10;99.70;;;;;;4992731;28;20458;-64
2021/12/31 05:07:39;;;;;;;6.47;2.90;;;9.10;99.70;;;;;;4993054;28;20450;-66
2021/12/31 05:10:07;;;;;;;10.50;3.20;;;9.10;99.70;;;;;;4992584;28;20442;-66
2021/12/31 05:12:36;;;;;;;5.03;2.80;;;9.00;99.70;;;;;;4992470;28;21022;-66
2021/12/31 05:15:06;;;;;;;6.93;3.23;;;9.00;99.70;;;;;;4992686;28;20995;-66
2021/12/31 05:17:34;;;;;;;7.00;3.30;;;8.90;99.70;;;;;;4992813;28;20466;-66
2021/12/31 05:20:01;;;;;;;8.43;3.40;;;8.90;99.70;;;;;;4992003;28;20478;-66
2021/12/31 05:22:28;;;;;;;10.73;3.80;;;8.90;99.70;;;;;;4992561;28;20457;-67
2021/12/31 05:24:54;;;;;;;6.13;2.90;;;8.80;99.70;;;;;;4992253;28;20443;-66
2021/12/31 05:27:21;;;;;;;6.10;2.77;;;8.80;99.70;;;;;;4992226;28;20497;-66
2021/12/31 05:29:48;;;;;;;7.30;3.00;;;8.70;99.70;;;;;;4991886;28;20458;-66
2021/12/31 05:32:14;;;;;;;6.50;3.13;;;8.70;99.70;;;;;;4992564;28;20454;-66
2021/12/31 05:34:42;;;;;;;6.40;3.20;;;8.70;99.70;;;;;;4992263;28;20453;-66
2021/12/31 05:37:09;;;;;;;6.10;3.10;;;8.70;99.70;;;;;;4992242;28;20470;-66
2021/12/31 05:39:36;;;;;;;7.70;3.70;;;8.80;99.70;;;;;;4991594;28;20855;-66
2021/12/31 05:42:03;;;;;;;11.17;3.60;;;8.70;99.70;;;;;;4992397;28;20831;-66
2021/12/31 05:44:29;;;;;;;9.33;3.40;;;8.70;99.70;;;;;;4986455;28;20473;-66
2021/12/31 05:46:57;;;;;;;7.33;3.60;;;8.70;99.70;;;;;;4982283;28;20489;-66
2021/12/31 05:49:23;;;;;;;7.80;3.60;;;8.70;99.70;;;;;;4991348;28;20458;-66
2021/12/31 05:51:51;;;;;;;6.23;3.60;;;8.70;99.70;;;;;;4991600;28;20446;-66
2021/12/31 05:54:18;;;;;;;6.63;3.40;;;8.60;99.70;;;;;;4992100;28;20449;-66
2021/12/31 05:56:45;;;;;;;7.17;3.60;;;8.60;99.70;;;;;;4991457;28;20490;-66
2021/12/31 05:59:11;;;;;;;9.93;3.83;;;8.60;99.70;;;;;;4991592;28;20462;-67
2021/12/31 06:01:38;;;;;;;7.20;3.50;;;8.70;99.70;;;;;;4974850;28;20864;-66
2021/12/31 06:04:05;;;;;;;7.27;3.73;;;8.70;99.70;;;;;;4972663;28;20462;-67
2021/12/31 06:06:31;;;;;;;5.30;3.17;;;8.70;99.70;;;;;;4971593;28;20474;-66
2021/12/31 06:09:00;;;;;;;7.60;4.13;;;8.70;99.70;;;;;;4965307;28;20455;-66
2021/12/31 06:11:27;;;;;;;8.73;3.60;;;8.60;99.70;;;;;;4971166;28;20443;-67
2021/12/31 06:14:01;;;;;;;7.87;3.70;;;8.50;99.70;;;;;;4971093;28;20436;-66
2021/12/31 06:16:29;;;;;;;6.57;3.30;;;8.40;99.70;;;;;;4971179;28;20992;-66
2021/12/31 06:18:56;;;;;;;11.30;3.97;;;8.30;99.70;;;;;;4967725;28;20605;-66
2021/12/31 06:21:23;;;;;;;11.17;4.53;;;8.30;99.70;;;;;;4970986;28;20563;-66
2021/12/31 06:23:49;;;;;;;8.43;4.50;;;8.30;99.70;;;;;;4970837;28;20436;-66
2021/12/31 06:26:17;;;;;;;14.37;4.80;;;8.20;99.70;;;;;;4971485;28;20459;-66
2021/12/31 06:28:44;;;;;;;10.23;4.80;;;8.10;99.70;;;;;;4971579;28;20443;-66
2021/12/31 06:31:10;;;;;;;11.77;4.90;;;8.10;99.70;;;;;;4972259;28;20831;-66
2021/12/31 06:33:37;;;;;;;8.40;4.60;;;8.10;99.70;;;;;;4972235;28;20459;-66
2021/12/31 06:36:04;;;;;;;9.57;5.00;;;8.20;99.70;;;;;;4971984;28;20491;-66
2021/12/31 06:38:31;;;;;;;8.23;4.63;;;8.20;99.70;;;;;;4971450;28;20447;-64
2021/12/31 06:40:58;;;;;;;9.37;5.47;;;8.10;99.70;;;;;;4972144;28;20447;-66
2021/12/31 06:43:26;;;;;;;10.43;4.83;;;8.00;99.70;;;;;;4972287;28;20444;-66
2021/12/31 06:45:53;;;;;;;9.70;4.70;;;7.90;99.70;;;;;;4966643;28;20860;-66
2021/12/31 06:48:20;;;;;;;11.10;5.20;;;7.90;99.70;;;;;;4968221;28;20766;-66
2021/12/31 06:50:47;;;;;;;11.03;5.03;;;7.80;99.70;;;;;;4971939;28;20443;-66
2021/12/31 06:53:13;;;;;;;10.40;4.73;;;7.70;99.70;;;;;;4971762;28;20474;-67
2021/12/31 06:55:40;;;;;;;8.97;4.70;;;7.70;99.70;;;;;;4975457;28;20490;-66
2021/12/31 06:58:07;;;;;;;9.70;5.10;;;7.70;99.70;;;;;;4990486;28;20447;-68
2021/12/31 07:00:35;;;;;;;9.70;5.30;;;7.60;99.70;;;;;;4988336;28;20501;-66
2021/12/31 07:03:09;;;;;;;10.60;5.73;;;7.60;99.70;;;;;;4986656;28;20462;-67
2021/12/31 07:05:36;;;;;;;11.60;5.33;;;7.50;99.70;;;;;;4985985;28;20476;-66
2021/12/31 07:08:04;;;;;;;10.93;5.47;;;7.50;99.70;;;;;;4986751;28;20484;-66
2021/12/31 07:10:31;;;;;;;12.07;5.60;;;7.50;99.70;;;;;;4990719;28;20476;-67
2021/12/31 07:12:59;;;;;;;17.10;6.87;;;7.50;99.70;;;;;;4991354;28;20455;-66
2021/12/31 07:15:26;;;;;;;15.17;7.00;;;7.50;99.70;;;;;;4990958;28;20482;-66
2021/12/31 07:17:54;;;;;;;15.67;7.53;;;7.60;99.70;;;;;;4990718;28;20758;-66
2021/12/31 07:20:21;;;;;;;12.60;6.20;;;7.60;99.70;;;;;;4991009;28;20454;-66
2021/12/31 07:22:48;;;;;;;19.50;9.00;;;7.60;99.70;;;;;;4992518;28;20461;-66
2021/12/31 07:25:15;;;;;;;27.97;13.63;;;7.60;99.70;;;;;;4994038;28;20461;-66
2021/12/31 07:27:41;;;;;;;26.13;11.23;;;7.60;99.70;;;;;;4994339;28;20949;-66
2021/12/31 07:30:09;;;;;;;33.30;14.67;;;7.60;99.70;;;;;;4994469;28;20446;-65
2021/12/31 07:32:37;;;;;;;148.70;38.83;;;7.60;99.70;;;;;;5057984;23;20497;-68
2021/12/31 07:35:06;;;;;;;65.97;23.37;;;7.60;99.70;;;;;;5007929;28;20488;-70
2021/12/31 07:37:33;;;;;;;67.20;24.03;;;7.70;99.70;;;;;;5011130;28;20453;-70
2021/12/31 07:40:03;;;;;;;51.47;17.10;;;7.70;99.70;;;;;;5005883;28;20455;-67
2021/12/31 07:42:30;;;;;;;66.37;22.43;;;7.70;99.70;;;;;;4991048;28;20557;-67
2021/12/31 07:44:56;;;;;;;24.30;10.23;;;7.60;99.70;;;;;;4987338;28;20469;-70
2021/12/31 07:47:23;;;;;;;21.73;10.47;;;7.60;99.70;;;;;;4984305;28;20860;-68
2021/12/31 07:49:50;;;;;;;10.57;5.60;;;7.70;99.70;;;;;;4986500;28;20450;-70
2021/12/31 07:52:18;;;;;;;13.03;6.10;;;7.70;99.70;;;;;;4993754;28;20489;-70
2021/12/31 07:54:45;;;;;;;22.90;10.23;;;7.70;99.70;;;;;;4985572;28;20501;-68
2021/12/31 07:57:11;;;;;;;25.87;8.90;;;7.70;99.70;;;;;;4992133;28;20501;-70
2021/12/31 07:59:38;;;;;;;32.37;12.90;;;7.70;99.70;;;;;;4993981;28;20453;-69
2021/12/31 08:02:05;;;;;;;38.17;13.53;;;7.80;99.70;;;;;;4986381;28;20984;-69
2021/12/31 08:04:32;;;;;;;17.43;7.80;;;7.80;99.70;;;;;;4986919;28;20956;-70
2021/12/31 08:06:58;;;;;;;11.30;5.77;;;7.80;99.70;;;;;;4990075;28;20441;-70
2021/12/31 08:09:26;;;;;;;10.30;5.60;;;7.90;99.70;;;;;;4986344;28;20540;-70
2021/12/31 08:11:53;;;;;;;31.90;16.67;;;7.90;99.70;;;;;;4988092;28;20841;-69
2021/12/31 08:14:20;;;;;;;9.93;6.27;;;7.90;99.70;;;;;;4986368;28;20465;-69
2021/12/31 08:16:46;;;;;;;11.60;5.80;;;7.90;99.70;;;;;;4982631;28;20483;-69
2021/12/31 08:19:13;;;;;;;8.60;4.90;;;8.00;99.70;;;;;;4992393;28;20458;-70
2021/12/31 08:21:40;;;;;;;11.50;5.33;;;8.10;99.70;;;;;;4993797;28;20453;-69
2021/12/31 08:24:06;;;;;;;9.77;4.73;;;8.00;99.70;;;;;;4993253;28;20466;-69
2021/12/31 08:26:34;;;;;;;7.87;4.53;;;8.00;99.70;;;;;;4994474;28;20443;-70
2021/12/31 08:29:01;;;;;;;7.37;4.33;;;8.10;99.70;;;;;;4993292;28;20936;-70
2021/12/31 08:31:28;;;;;;;8.87;4.90;;;8.10;99.70;;;;;;4984079;28;20454;-69
2021/12/31 08:33:55;;;;;;;8.17;4.50;;;8.10;99.70;;;;;;4979652;28;20552;-69
2021/12/31 08:36:21;;;;;;;11.60;4.97;;;8.00;99.70;;;;;;4990609;28;20485;-69
2021/12/31 08:38:48;;;;;;;8.90;5.20;;;8.00;99.70;;;;;;4985847;28;20442;-69
2021/12/31 08:41:15;;;;;;;8.73;4.63;;;8.10;99.70;;;;;;4993050;28;20808;-70
2021/12/31 08:43:43;;;;;;;7.70;4.03;;;8.10;99.70;;;;;;4993568;28;20469;-69
2021/12/31 08:46:10;;;;;;;8.90;4.70;;;8.10;99.70;;;;;;4994106;28;20447;-70
2021/12/31 08:48:36;;;;;;;8.83;5.20;;;8.20;99.70;;;;;;4993391;28;20454;-70
2021/12/31 08:51:03;;;;;;;8.97;4.43;;;8.20;99.70;;;;;;4989878;28;20466;-69
2021/12/31 08:53:30;;;;;;;8.00;4.60;;;8.20;99.70;;;;;;4993618;28;20473;-69
2021/12/31 08:55:57;;;;;;;8.30;4.50;;;8.20;99.70;;;;;;4993809;28;20513;-69
2021/12/31 08:58:23;;;;;;;8.60;4.50;;;8.20;99.70;;;;;;4993014;28;20450;-69
2021/12/31 09:00:51;;;;;;;8.90;4.77;;;8.30;99.70;;;;;;4993067;28;20831;-69
2021/12/31 09:03:18;;;;;;;9.43;4.60;;;8.40;99.70;;;;;;4987710;28;20837;-69
2021/12/31 09:05:45;;;;;;;6.63;4.00;;;8.50;99.70;;;;;;4987388;28;20474;-69
2021/12/31 09:08:11;;;;;;;9.13;4.87;;;8.60;99.70;;;;;;4986790;28;20462;-69
2021/12/31 09:10:38;;;;;;;9.20;4.30;;;8.60;99.70;;;;;;4995158;28;20462;-70
2021/12/31 09:13:05;;;;;;;8.70;4.70;;;8.60;99.70;;;;;;4983925;28;20494;-71
2021/12/31 09:15:32;;;;;;;8.20;4.83;;;8.60;99.70;;;;;;4989127;28;20463;-71
2021/12/31 09:18:00;;;;;;;8.17;4.50;;;8.70;99.70;;;;;;4988430;28;20458;-70
2021/12/31 09:20:31;;;;;;;9.20;4.53;;;8.70;99.70;;;;;;4988515;28;20546;-71
2021/12/31 09:22:58;;;;;;;10.10;4.37;;;8.80;99.70;;;;;;4988203;28;20485;-70
2021/12/31 09:25:25;;;;;;;7.67;4.27;;;8.90;99.70;;;;;;4991480;28;20455;-70
2021/12/31 09:27:51;;;;;;;7.77;4.10;;;8.90;99.70;;;;;;4989637;28;20438;-70
2021/12/31 09:30:18;;;;;;;7.80;4.40;;;9.00;99.70;;;;;;4990578;28;20461;-71
2021/12/31 09:32:45;;;;;;;8.90;4.47;;;9.00;99.70;;;;;;4986980;28;20526;-71
2021/12/31 09:35:13;;;;;;;9.03;4.60;;;9.10;99.70;;;;;;4988914;28;20489;-71
2021/12/31 09:37:40;;;;;;;8.00;4.50;;;9.10;99.70;;;;;;4986367;28;20869;-69
2021/12/31 09:40:09;;;;;;;8.77;4.67;;;9.10;99.70;;;;;;4984816;28;20463;-71
2021/12/31 09:42:36;;;;;;;8.30;3.87;;;9.20;99.70;;;;;;4986706;28;20479;-69
2021/12/31 09:45:04;;;;;;;7.60;4.43;;;9.20;99.70;;;;;;4988251;28;20439;-71
2021/12/31 09:47:30;;;;;;;9.07;4.40;;;9.30;99.70;;;;;;4987082;28;20489;-70
2021/12/31 09:49:57;;;;;;;7.83;4.60;;;9.30;99.70;;;;;;4987280;28;20457;-70
2021/12/31 09:52:31;;;;;;;7.83;4.30;;;9.40;99.70;;;;;;4981237;28;20494;-70
2021/12/31 09:54:57;;;;;;;6.77;3.90;;;9.40;99.70;;;;;;4981716;28;21005;-70
2021/12/31 09:57:24;;;;;;;9.80;4.63;;;9.50;99.70;;;;;;4978238;28;20495;-70
2021/12/31 09:59:52;;;;;;;11.17;5.47;;;9.60;99.70;;;;;;4989466;28;20454;-69
2021/12/31 10:02:31;;;;;;;9.50;4.90;;;9.60;99.70;;;;;;4990819;28;20570;-70
2021/12/31 10:04:59;;;;;;;7.60;4.73;;;9.70;99.70;;;;;;4990566;28;20454;-69
2021/12/31 10:07:30;;;;;;;8.10;4.60;;;9.80;99.70;;;;;;4991531;28;20443;-70
2021/12/31 10:10:09;;;;;;;8.17;4.63;;;9.80;99.70;;;;;;4990879;28;20974;-69
2021/12/31 10:12:52;;;;;;;8.00;4.70;;;9.90;99.70;;;;;;4991074;28;20478;-68
2021/12/31 10:15:21;;;;;;;10.10;5.40;;;9.90;99.70;;;;;;4991606;28;20455;-69
2021/12/31 10:17:48;;;;;;;9.33;5.00;;;9.90;99.70;;;;;;4990048;28;21034;-69
2021/12/31 10:20:16;;;;;;;10.27;4.37;;;9.80;99.70;;;;;;4987278;28;20450;-69
2021/12/31 10:22:44;;;;;;;7.57;4.30;;;9.90;99.70;;;;;;4991382;28;20478;-70
2021/12/31 10:25:20;;;;;;;8.37;4.27;;;9.90;99.70;;;;;;4990699;28;20840;-69
2021/12/31 10:27:47;;;;;;;9.10;4.60;;;9.90;99.70;;;;;;4991026;28;20824;-69
2021/12/31 10:30:14;;;;;;;7.60;4.03;;;10.00;99.70;;;;;;4990167;28;20830;-70
2021/12/31 10:32:42;;;;;;;8.50;4.70;;;10.00;99.70;;;;;;4991166;28;20485;-69
2021/12/31 10:35:11;;;;;;;9.93;5.33;;;10.10;99.70;;;;;;4991434;28;20504;-69
2021/12/31 10:37:47;;;;;;;10.60;5.17;;;10.20;99.70;;;;;;4991239;28;20485;-69
2021/12/31 10:40:27;;;;;;;9.30;4.73;;;10.30;99.70;;;;;;4990469;28;20446;-69
2021/12/31 10:43:11;;;;;;;9.07;4.50;;;10.30;99.70;;;;;;4991605;28;20923;-69
2021/12/31 10:45:38;;;;;;;9.30;4.47;;;10.40;99.70;;;;;;4991308;28;20489;-70
2021/12/31 10:48:06;;;;;;;7.43;4.47;;;10.40;99.70;;;;;;4973476;28;20466;-70
2021/12/31 10:50:35;;;;;;;8.37;4.60;;;10.50;99.70;;;;;;4990394;28;20474;-69
2021/12/31 10:53:09;;;;;;;7.80;4.20;;;10.50;99.70;;;;;;4991203;28;20471;-69
2021/12/31 10:55:40;;;;;;;9.60;4.80;;;10.40;99.70;;;;;;4991266;28;20456;-69
2021/12/31 10:58:09;;;;;;;9.43;4.50;;;10.50;99.70;;;;;;4992377;28;20564;-70
2021/12/31 11:00:38;;;;;;;9.20;4.90;;;10.60;99.70;;;;;;4994644;28;20450;-70
2021/12/31 11:03:06;;;;;;;7.17;4.33;;;10.70;99.70;;;;;;4995624;28;20493;-70
2021/12/31 11:05:34;;;;;;;8.57;4.57;;;10.60;99.70;;;;;;4995492;28;20450;-70
2021/12/31 11:08:04;;;;;;;9.30;4.83;;;10.60;99.70;;;;;;4994158;28;20447;-69
2021/12/31 11:10:35;;;;;;;8.37;4.40;;;10.70;99.70;;;;;;4994944;28;20450;-68
2021/12/31 11:13:08;;;;;;;7.00;3.87;;;10.70;99.70;;;;;;4994754;28;20547;-69
2021/12/31 11:15:35;;;;;;;8.43;4.80;;;10.80;99.70;;;;;;4994855;28;20501;-69
2021/12/31 11:18:02;;;;;;;8.60;4.07;;;10.80;99.70;;;;;;4993764;28;20481;-70
2021/12/31 11:20:29;;;;;;;7.30;4.00;;;10.80;99.70;;;;;;4994513;28;20450;-69
2021/12/31 11:22:56;;;;;;;6.83;3.77;;;11.00;99.70;;;;;;4994745;28;20466;-69
2021/12/31 11:25:26;;;;;;;8.63;4.40;;;11.10;99.70;;;;;;4993710;28;20470;-70
2021/12/31 11:27:55;;;;;;;7.33;3.90;;;11.00;99.70;;;;;;4994352;28;20473;-69
2021/12/31 11:30:27;;;;;;;9.10;4.23;;;11.10;99.70;;;;;;4993749;28;20909;-69
2021/12/31 11:32:56;;;;;;;7.53;4.20;;;11.20;99.70;;;;;;4994049;28;21017;-70
2021/12/31 11:35:46;;;;;;;7.60;4.00;;;11.20;99.70;;;;;;4994430;28;20446;-70
2021/12/31 11:38:38;;;;;;;9.50;4.40;;;11.20;99.70;;;;;;4989681;28;20573;-69
2021/12/31 11:41:08;;;;;;;6.80;3.73;;;11.10;99.70;;;;;;4993085;28;20585;-69
2021/12/31 11:43:37;;;;;;;7.93;3.90;;;11.10;99.70;;;;;;4994716;28;20545;-69
2021/12/31 11:46:33;;;;;;;6.67;3.50;;;11.20;99.70;;;;;;4994278;28;20454;-69
2021/12/31 11:49:01;;;;;;;6.20;3.23;;;11.20;99.70;;;;;;4992228;28;20815;-69
2021/12/31 11:51:34;;;;;;;6.00;3.57;;;11.30;99.70;;;;;;4993732;28;20450;-69
2021/12/31 11:54:17;;;;;;;6.90;3.43;;;11.40;99.70;;;;;;4993728;28;20889;-69
2021/12/31 11:57:00;;;;;;;6.30;3.60;;;11.40;99.70;;;;;;4993463;28;20486;-69
2021/12/31 11:59:32;;;;;;;6.77;3.37;;;11.40;99.70;;;;;;4988867;28;20975;-69
2021/12/31 12:02:15;;;;;;;5.93;3.20;;;11.50;99.70;;;;;;4993783;28;20450;-70
2021/12/31 12:04:45;;;;;;;6.30;3.13;;;11.50;99.70;;;;;;4993395;28;20481;-70
2021/12/31 12:07:31;;;;;;;6.13;3.20;;;11.70;99.70;;;;;;4993242;28;20442;-70
2021/12/31 12:10:29;;;;;;;5.80;3.27;;;11.70;99.70;;;;;;4993154;28;20438;-69
2021/12/31 12:13:13;;;;;;;8.83;3.77;;;11.70;99.70;;;;;;4959982;28;20467;-70
2021/12/31 12:15:42;;;;;;;6.80;2.97;;;11.70;99.70;;;;;;4991551;28;20450;-69
2021/12/31 12:18:08;;;;;;;5.47;3.10;;;11.70;99.70;;;;;;4993279;28;20610;-69
2021/12/31 12:20:37;;;;;;;6.13;3.50;;;11.60;99.70;;;;;;4992969;28;20448;-70
2021/12/31 12:23:19;;;;;;;7.63;4.07;;;11.60;99.70;;;;;;4993294;28;20466;-70
2021/12/31 12:25:46;;;;;;;6.30;3.90;;;11.60;99.70;;;;;;4989668;28;20995;-70
2021/12/31 12:28:18;;;;;;;6.20;3.60;;;11.60;99.70;;;;;;4992985;28;20457;-69
2021/12/31 12:30:52;;;;;;;6.10;3.60;;;11.60;99.70;;;;;;4987941;28;20480;-70
2021/12/31 12:33:24;;;;;;;6.80;3.60;;;11.60;99.70;;;;;;4993403;28;20506;-69
2021/12/31 12:35:52;;;;;;;5.30;3.00;;;11.60;99.70;;;;;;4992630;28;20454;-70
2021/12/31 12:38:22;;;;;;;5.50;3.20;;;11.60;99.70;;;;;;4992191;28;20610;-70
2021/12/31 12:40:52;;;;;;;5.10;2.80;;;11.70;99.70;;;;;;4993059;28;20442;-70
2021/12/31 12:43:22;;;;;;;5.97;3.00;;;11.80;99.70;;;;;;4993339;28;20467;-70
2021/12/31 12:45:52;;;;;;;7.90;3.03;;;11.80;99.70;;;;;;4993174;28;20455;-69
2021/12/31 12:48:30;;;;;;;5.10;2.90;;;11.90;99.70;;;;;;4992102;28;20446;-69
2021/12/31 12:50:58;;;;;;;6.73;3.30;;;11.90;99.70;;;;;;4992803;28;20442;-69
2021/12/31 12:53:27;;;;;;;6.20;3.20;;;11.90;99.70;;;;;;4993124;28;20470;-70
2021/12/31 12:56:08;;;;;;;5.70;3.00;;;11.90;99.70;;;;;;4992778;28;20462;-70
2021/12/31 12:58:39;;;;;;;6.17;3.10;;;11.90;99.70;;;;;;4992366;28;20478;-70
2021/12/31 13:01:07;;;;;;;7.13;3.50;;;12.00;99.70;;;;;;4992767;28;20538;-70
2021/12/31 13:03:47;;;;;;;5.20;3.13;;;12.10;99.70;;;;;;4992624;28;20959;-70
2021/12/31 13:06:14;;;;;;;4.53;2.67;;;12.20;99.70;;;;;;4993072;28;20482;-70
2021/12/31 13:08:41;;;;;;;6.30;3.40;;;12.20;99.70;;;;;;4991974;28;20442;-70
2021/12/31 13:11:08;;;;;;;6.90;3.53;;;12.20;99.70;;;;;;4992774;28;20454;-70
2021/12/31 13:13:38;;;;;;;6.47;3.60;;;12.30;99.70;;;;;;4976189;28;21004;-70
2021/12/31 13:16:06;;;;;;;5.80;3.40;;;12.40;99.70;;;;;;4980599;28;20458;-69
2021/12/31 13:18:36;;;;;;;6.60;4.30;;;12.50;99.70;;;;;;4990837;28;20557;-70
2021/12/31 13:21:06;;;;;;;8.47;4.23;;;12.50;99.70;;;;;;4991212;28;20450;-70
2021/12/31 13:23:34;;;;;;;7.43;3.50;;;12.60;99.70;;;;;;4992394;28;20498;-70
2021/12/31 13:26:15;;;;;;;5.70;3.33;;;12.60;99.70;;;;;;4981080;28;20530;-70
2021/12/31 13:28:44;;;;;;;6.50;3.90;;;12.60;99.70;;;;;;4977307;28;20451;-70
2021/12/31 13:31:10;;;;;;;8.27;3.33;;;12.70;99.70;;;;;;4972838;28;20447;-70
2021/12/31 13:33:43;;;;;;;6.23;3.37;;;12.70;99.70;;;;;;4988806;28;20524;-70
2021/12/31 13:36:25;;;;;;;5.40;3.07;;;12.70;99.70;;;;;;5006206;23;20493;-69
2021/12/31 13:39:10;;;;;;;5.60;3.57;;;12.70;99.70;;;;;;5009500;28;20488;-69
2021/12/31 13:41:47;;;;;;;6.27;3.57;;;12.70;99.70;;;;;;5010440;28;20964;-69
2021/12/31 13:44:19;;;;;;;7.10;4.07;;;12.70;99.70;;;;;;5002370;28;20450;-70
2021/12/31 13:46:48;;;;;;;5.30;3.50;;;12.70;99.70;;;;;;4994847;28;20484;-69
2021/12/31 13:49:19;;;;;;;5.67;3.47;;;12.70;99.70;;;;;;4990384;28;20489;-69
2021/12/31 13:51:47;;;;;;;6.73;3.90;;;12.60;99.70;;;;;;4990712;28;20450;-69
2021/12/31 13:54:16;;;;;;;5.60;3.40;;;12.60;99.70;;;;;;4991371;28;20446;-69
2021/12/31 13:56:44;;;;;;;6.07;3.47;;;12.60;99.70;;;;;;4990397;28;20566;-70
2021/12/31 13:59:24;;;;;;;6.60;3.57;;;12.60;99.70;;;;;;4990698;28;20485;-69
2021/12/31 14:02:08;;;;;;;6.40;3.77;;;12.60;99.70;;;;;;4990586;28;20501;-69
2021/12/31 14:04:52;;;;;;;6.37;3.80;;;12.50;99.70;;;;;;4991171;28;20454;-69
2021/12/31 14:07:21;;;;;;;7.37;3.50;;;12.50;99.70;;;;;;4990062;28;20446;-69
2021/12/31 14:09:48;;;;;;;6.57;3.83;;;12.30;99.70;;;;;;4990236;28;20526;-69
2021/12/31 14:12:16;;;;;;;6.87;3.70;;;12.30;99.70;;;;;;4988722;28;20454;-69
2021/12/31 14:14:44;;;;;;;6.63;3.90;;;12.20;99.70;;;;;;4990916;28;20454;-69
2021/12/31 14:17:11;;;;;;;5.90;3.60;;;12.10;99.70;;;;;;4990652;28;20868;-69
2021/12/31 14:19:39;;;;;;;6.60;3.73;;;12.00;99.70;;;;;;4990347;28;20497;-69
2021/12/31 14:22:07;;;;;;;5.70;3.53;;;12.00;99.70;;;;;;4990723;28;20454;-69
2021/12/31 14:24:34;;;;;;;9.37;3.90;;;12.00;99.70;;;;;;4990117;28;20463;-69
2021/12/31 14:27:02;;;;;;;10.10;4.53;;;11.90;99.70;;;;;;4990342;28;20495;-69
2021/12/31 14:29:29;;;;;;;13.60;4.33;;;11.90;99.70;;;;;;4989535;28;21195;-69
2021/12/31 14:32:01;;;;;;;9.93;3.80;;;11.90;99.70;;;;;;4989163;28;20801;-69
2021/12/31 14:34:29;;;;;;;8.70;4.07;;;12.00;99.70;;;;;;4990569;28;20454;-69
2021/12/31 14:36:58;;;;;;;10.73;4.53;;;11.90;99.70;;;;;;4955019;28;1021554;-69
2021/12/31 14:39:25;;;;;;;8.10;4.77;;;11.80;99.70;;;;;;4989845;28;20587;-69
2021/12/31 14:41:53;;;;;;;10.93;4.90;;;11.80;99.70;;;;;;4990920;28;20446;-69
2021/12/31 14:44:19;;;;;;;10.97;4.50;;;11.80;99.70;;;;;;4990915;28;20458;-69
2021/12/31 14:46:46;;;;;;;7.80;4.70;;;11.60;99.70;;;;;;4991031;28;20856;-69
2021/12/31 14:49:14;;;;;;;8.53;4.90;;;11.60;99.70;;;;;;4989905;28;20922;-69
2021/12/31 14:51:41;;;;;;;8.83;5.20;;;11.50;99.70;;;;;;4991040;28;20498;-69
2021/12/31 14:54:10;;;;;;;13.27;6.60;;;11.40;99.70;;;;;;4990984;28;20451;-70
2021/12/31 14:56:37;;;;;;;13.40;6.83;;;11.20;99.70;;;;;;4990491;28;20562;-68
2021/12/31 14:59:07;;;;;;;14.00;6.80;;;11.20;99.70;;;;;;4990377;28;20474;-69
2021/12/31 15:01:33;;;;;;;12.30;6.60;;;11.10;99.70;;;;;;4990833;28;20545;-69
2021/12/31 15:04:00;;;;;;;12.90;6.80;;;11.00;99.70;;;;;;4990516;28;20450;-69
2021/12/31 15:06:28;;;;;;;10.70;6.00;;;11.00;99.70;;;;;;4991066;28;20474;-69
2021/12/31 15:08:55;;;;;;;15.50;8.40;;;11.00;99.70;;;;;;4990389;28;20442;-69
2021/12/31 15:11:22;;;;;;;13.70;7.20;;;10.90;99.70;;;;;;4990919;28;20458;-69
2021/12/31 15:13:49;;;;;;;12.20;6.27;;;10.90;99.70;;;;;;4990412;28;20497;-69
2021/12/31 15:16:18;;;;;;;11.30;6.53;;;10.80;99.70;;;;;;4990710;28;20994;-69
2021/12/31 15:18:45;;;;;;;10.73;6.00;;;10.70;99.70;;;;;;4990084;28;20505;-69
2021/12/31 15:21:12;;;;;;;12.80;5.70;;;10.70;99.70;;;;;;4990855;28;20449;-69
2021/12/31 15:23:40;;;;;;;12.20;5.80;;;10.60;99.70;;;;;;4990436;28;20466;-69
2021/12/31 15:26:06;;;;;;;9.73;5.67;;;10.60;99.70;;;;;;4990246;28;20470;-69
2021/12/31 15:28:33;;;;;;;10.03;5.80;;;10.60;99.70;;;;;;4990428;28;20451;-69
2021/12/31 15:31:00;;;;;;;11.17;5.70;;;10.50;99.70;;;;;;4991013;28;20508;-69
2021/12/31 15:33:27;;;;;;;11.23;5.93;;;10.40;99.70;;;;;;4990273;28;20831;-69
2021/12/31 15:35:54;;;;;;;9.40;5.60;;;10.40;99.70;;;;;;4990401;28;20492;-69
2021/12/31 15:38:20;;;;;;;11.60;6.20;;;10.40;99.70;;;;;;4986937;28;20573;-69
2021/12/31 15:40:49;;;;;;;13.97;7.00;;;10.30;99.70;;;;;;4990703;28;20450;-70
2021/12/31 15:43:16;;;;;;;16.30;7.80;;;10.20;99.70;;;;;;4990948;28;20508;-69
2021/12/31 15:45:43;;;;;;;13.83;7.43;;;10.20;99.70;;;;;;4994365;28;20474;-69
2021/12/31 15:48:10;;;;;;;12.20;6.00;;;10.10;99.70;;;;;;4994194;28;20450;-69
2021/12/31 15:50:38;;;;;;;11.63;6.20;;;10.10;99.70;;;;;;4993788;28;20450;-69
2021/12/31 15:53:05;;;;;;;11.93;6.40;;;10.00;99.70;;;;;;4993830;28;20832;-69
2021/12/31 15:55:32;;;;;;;13.83;7.47;;;9.90;99.70;;;;;;4993210;28;20477;-69
2021/12/31 15:58:00;;;;;;;12.90;6.80;;;9.90;99.70;;;;;;4993542;28;20492;-69
2021/12/31 16:00:28;;;;;;;11.77;6.60;;;9.90;99.70;;;;;;4993649;28;20827;-69
2021/12/31 16:02:55;;;;;;;14.87;7.10;;;9.80;99.70;;;;;;4993251;28;20952;-69
2021/12/31 16:05:22;;;;;;;18.10;7.60;;;9.80;99.70;;;;;;4992620;28;21014;-69
2021/12/31 16:07:48;;;;;;;20.37;10.10;;;9.70;99.70;;;;;;4992970;28;20990;-68
2021/12/31 16:10:16;;;;;;;30.73;14.10;;;9.70;99.70;;;;;;4992875;28;20469;-69
2021/12/31 16:12:44;;;;;;;103.80;39.97;;;9.60;99.70;;;;;;4993834;28;20836;-69
2021/12/31 16:15:14;;;;;;;159.23;52.20;;;9.60;99.70;;;;;;4993270;28;21905;-69
2021/12/31 16:17:41;;;;;;;119.57;46.83;;;9.50;99.70;;;;;;4993557;28;20454;-67
2021/12/31 16:20:09;;;;;;;141.40;53.70;;;9.40;99.70;;;;;;4993256;28;21019;-69
2021/12/31 16:22:36;;;;;;;109.23;43.07;;;9.40;99.70;;;;;;4993101;28;20454;-69
2021/12/31 16:25:03;;;;;;;70.93;30.97;;;9.40;99.70;;;;;;4992365;28;20447;-69
2021/12/31 16:27:30;;;;;;;26.40;14.87;;;9.30;99.70;;;;;;4993604;28;20924;-69
2021/12/31 16:29:58;;;;;;;37.47;18.10;;;9.60;99.70;;;;;;4992751;28;20956;-69
2021/12/31 16:32:28;;;;;;;28.73;14.60;;;9.80;99.70;;;;;;4993225;28;20451;-69
2021/12/31 16:34:59;;;;;;;34.50;16.50;;;9.70;99.70;;;;;;4993022;28;20446;-69
2021/12/31 16:37:26;;;;;;;25.50;13.70;;;9.60;99.70;;;;;;4993104;28;20501;-69
2021/12/31 16:39:53;;;;;;;23.30;12.90;;;9.50;99.70;;;;;;4992851;28;20493;-69
2021/12/31 16:42:20;;;;;;;24.83;13.77;;;9.60;99.70;;;;;;4992684;28;20450;-69
2021/12/31 16:44:47;;;;;;;22.20;12.23;;;9.60;99.70;;;;;;4992828;28;20447;-69
2021/12/31 16:47:16;;;;;;;16.97;9.80;;;9.40;99.70;;;;;;4993308;28;20474;-69
2021/12/31 16:49:44;;;;;;;14.77;8.43;;;9.50;99.70;;;;;;4992491;28;20485;-69
2021/12/31 16:52:11;;;;;;;20.10;10.10;;;9.50;99.70;;;;;;4991168;28;20470;-68
2021/12/31 16:54:38;;;;;;;19.07;10.43;;;9.50;99.70;;;;;;4983909;28;20455;-69
2021/12/31 16:57:06;;;;;;;15.97;8.83;;;9.50;99.70;;;;;;4985478;28;20785;-68
2021/12/31 16:59:33;;;;;;;16.90;9.13;;;9.40;99.70;;;;;;4984473;28;20479;-69
2021/12/31 17:01:59;;;;;;;13.90;7.50;;;9.30;99.70;;;;;;4987778;28;20450;-69
2021/12/31 17:04:26;;;;;;;16.47;8.83;;;9.20;99.70;;;;;;4981957;28;20454;-68
2021/12/31 17:06:54;;;;;;;16.93;8.57;;;9.20;99.70;;;;;;4974170;28;20466;-68
2021/12/31 17:09:21;;;;;;;13.83;7.93;;;9.40;99.70;;;;;;4990042;28;20458;-69
2021/12/31 17:11:47;;;;;;;15.40;8.20;;;9.50;99.70;;;;;;4983404;28;20974;-69
2021/12/31 17:14:15;;;;;;;15.20;7.83;;;9.50;99.70;;;;;;4979453;28;20475;-68
2021/12/31 17:16:42;;;;;;;17.60;8.60;;;9.60;99.70;;;;;;4986356;28;20491;-69
2021/12/31 17:19:09;;;;;;;17.00;8.90;;;9.60;99.70;;;;;;4985207;28;21002;-68
2021/12/31 17:21:35;;;;;;;20.50;11.10;;;9.70;99.70;;;;;;4987237;28;20462;-68
2021/12/31 17:24:04;;;;;;;20.77;11.47;;;9.70;99.70;;;;;;4986792;28;20450;-69
2021/12/31 17:26:31;;;;;;;16.70;8.77;;;9.80;99.70;;;;;;4984907;28;21019;-69
2021/12/31 17:28:57;;;;;;;11.03;6.20;;;9.90;99.70;;;;;;4981459;28;20462;-69
2021/12/31 17:31:24;;;;;;;11.43;6.60;;;9.90;99.70;;;;;;4989512;28;20449;-69
2021/12/31 17:33:51;;;;;;;11.50;6.13;;;9.90;99.70;;;;;;4990887;28;20984;-68
2021/12/31 17:36:18;;;;;;;15.27;4.40;;;10.00;99.70;;;;;;4985075;28;20486;-68
2021/12/31 17:38:44;;;;;;;8.73;4.83;;;10.00;99.70;;;;;;4989850;28;20577;-69
2021/12/31 17:41:12;;;;;;;8.80;4.93;;;10.10;99.70;;;;;;4987722;28;20470;-68
2021/12/31 17:43:40;;;;;;;9.90;5.20;;;10.30;99.70;;;;;;4989144;28;20451;-69
2021/12/31 17:46:07;;;;;;;10.07;5.70;;;10.40;99.70;;;;;;4989698;28;20482;-69
2021/12/31 17:48:35;;;;;;;13.77;6.10;;;10.30;99.70;;;;;;4990284;28;20451;-68
2021/12/31 17:51:03;;;;;;;10.77;5.73;;;10.20;99.70;;;;;;4987203;28;20443;-69
2021/12/31 17:53:30;;;;;;;11.23;6.27;;;10.20;99.70;;;;;;4989928;28;20454;-69
2021/12/31 17:55:56;;;;;;;9.03;5.07;;;10.20;99.70;;;;;;4987233;28;20486;-68